aviador You're here:

SAME Decoded Metar

MENDOZA in ARGENTINA
Report Time2018-07-22 07:00:00
UTC Time2018-07-22 07:13:26
Flight Rules vfr VFR
Wind140° at 07 kt
W.Decomp.*RWY 18: 5.3 kt HW 4.6 kt LCW
W.Rank140° ranks 2
Current wind is above 140° avg. (6.1)
Visibility9999 m
Phenomena:N/A
Clouds:N/A
Expected CloudBase > 2,800 ft AGL from Temp-Dew spread
CeilingNone
Temp05°C (ISA -5)
Dew Point-2°C (61% RH)
AAT0.2°C
QNH1009 hPa
Density Alt1,877 ft
Elevation2,310 ft
Report Wrong Elevation
Raw Report
SAME 220700Z 14007KT CAVOK 05/M02 Q1009=

Extra information for SAME:More info

Metar Taf Metar & Taf Last 4 Metars F.Rules Stats Wind Profile Meteogram Temp Stats Airport Information Weather charts Add Link Nearby VenuesMetar ALERT Operation Metar Decoded Social comments